Time;durP1;ratioP1;P1;durP2;ratioP2;P2;SDS_P1;SDS_P2;PMS_P1;PMS_P2;Temp;Humidity;BMP_temperature;BMP_pressure;BME280_temperature;BME280_humidity;BME280_pressure;Samples;Min_cycle;Max_cycle;Signal;HPM_P1;HPM_P2
2023/05/08 00:00:37;;;;;;;5.43;2.38;;;;;;;22.84;54.45;100035.41;4933398;29;20493;-66
2023/05/08 00:03:03;;;;;;;5.22;2.35;;;;;;;22.83;54.31;100039.03;4933409;29;20016;-66
2023/05/08 00:05:28;;;;;;;5.90;2.47;;;;;;;22.80;54.33;100043.59;4932970;29;20039;-67
2023/05/08 00:08:00;;;;;;;5.60;2.08;;;;;;;22.77;54.34;100041.09;4933452;29;20035;-66
2023/05/08 00:10:26;;;;;;;7.40;2.30;;;;;;;22.77;53.96;100041.09;4933025;29;20030;-66
2023/05/08 00:12:52;;;;;;;5.00;2.35;;;;;;;22.77;54.33;100043.75;4932883;29;20028;-66
2023/05/08 00:15:17;;;;;;;5.72;2.45;;;;;;;22.73;54.16;100042.25;4933161;29;20020;-67
2023/05/08 00:17:43;;;;;;;6.85;2.55;;;;;;;22.72;54.36;100048.53;4933211;29;20024;-66
2023/05/08 00:20:08;;;;;;;6.50;2.47;;;;;;;22.72;54.33;100053.84;4933168;29;20031;-67
2023/05/08 00:22:34;;;;;;;8.43;2.63;;;;;;;22.72;54.14;100051.19;4932971;29;20480;-67
2023/05/08 00:24:59;;;;;;;5.90;2.35;;;;;;;22.69;54.13;100048.69;4933043;29;20040;-67
2023/05/08 00:27:25;;;;;;;7.32;2.65;;;;;;;22.67;54.22;100045.28;4931822;28;20047;-67
2023/05/08 00:29:50;;;;;;;6.18;2.20;;;;;;;22.66;54.23;100040.88;4933097;28;20038;-67
2023/05/08 00:32:16;;;;;;;6.13;2.38;;;;;;;22.65;54.28;100041.84;4932949;28;20031;-67
2023/05/08 00:34:41;;;;;;;8.27;2.83;;;;;;;22.63;54.30;100039.28;4947654;28;20032;-66
2023/05/08 00:37:07;;;;;;;6.47;2.58;;;;;;;22.62;54.31;100036.72;4933027;28;20114;-67
2023/05/08 00:39:32;;;;;;;6.60;2.70;;;;;;;22.61;54.29;100045.66;4933105;29;20024;-69
2023/05/08 00:41:57;;;;;;;5.03;1.98;;;;;;;22.61;54.20;100045.66;4932903;28;20046;-67
2023/05/08 00:44:23;;;;;;;5.43;2.33;;;;;;;22.60;54.28;100043.91;4932662;28;20040;-67
2023/05/08 00:46:49;;;;;;;6.72;2.60;;;;;;;22.59;54.23;100042.19;4932730;28;20481;-67
2023/05/08 00:49:15;;;;;;;6.38;2.17;;;;;;;22.58;54.35;100046.69;4932780;28;20031;-66
2023/05/08 00:51:46;;;;;;;5.78;2.38;;;;;;;22.57;54.28;100049.41;4932847;29;20036;-67
2023/05/08 00:54:13;;;;;;;7.97;2.03;;;;;;;22.57;54.05;100046.75;4932453;28;20550;-66
2023/05/08 00:56:39;;;;;;;5.90;2.45;;;;;;;22.55;54.06;100048.66;4932103;28;20035;-66
2023/05/08 00:59:10;;;;;;;5.32;2.10;;;;;;;22.56;54.06;100051.22;4932803;29;20035;-67
2023/05/08 01:01:37;;;;;;;6.65;2.40;;;;;;;22.53;54.24;100044.25;4932147;29;20027;-66
2023/05/08 01:04:03;;;;;;;5.25;1.90;;;;;;;22.53;54.29;100049.59;4932574;29;20067;-66
2023/05/08 01:06:28;;;;;;;6.28;1.90;;;;;;;22.51;54.21;100045.25;4932489;29;20054;-66
2023/05/08 01:08:54;;;;;;;7.22;2.65;;;;;;;22.52;54.20;100044.38;4932385;29;20052;-66
2023/05/08 01:11:28;;;;;;;5.88;2.08;;;;;;;22.50;54.04;100044.44;4932292;29;20037;-66
2023/05/08 01:14:10;;;;;;;5.50;2.45;;;;;;;22.50;54.09;100049.75;4932400;29;20055;-66
2023/05/08 01:17:34;;;;;;;5.25;2.13;;;;;;;22.51;54.08;100050.59;4931182;29;20098;-66
2023/05/08 01:20:11;;;;;;;5.50;2.15;;;;;;;22.49;54.17;100053.34;4889986;28;20047;-66
2023/05/08 01:22:54;;;;;;;5.85;2.20;;;;;;;22.48;54.10;100058.75;4892317;29;20028;-66
2023/05/08 01:25:39;;;;;;;6.22;2.50;;;;;;;22.52;54.18;100047.88;4892016;29;20044;-66
2023/05/08 01:28:12;;;;;;;5.90;2.05;;;;;;;22.49;54.00;100061.34;4892162;29;20041;-66
2023/05/08 01:30:38;;;;;;;4.63;2.00;;;;;;;22.48;54.01;100048.97;4891889;28;20106;-66
2023/05/08 01:33:46;;;;;;;5.47;1.95;;;;;;;22.50;54.00;100059.50;4892201;28;20052;-66
2023/05/08 01:36:22;;;;;;;3.85;1.70;;;;;;;22.47;54.12;100059.72;4854857;29;20073;-66
2023/05/08 01:39:06;;;;;;;;;;;;;;;22.47;54.11;100047.25;4854713;29;20055;-67
2023/05/08 01:41:34;;;;;;;5.35;2.20;;;;;;;22.49;54.01;100055.16;4854821;29;20453;-65
2023/05/08 01:44:02;;;;;;;5.60;2.05;;;;;;;22.45;54.06;100057.13;4854770;29;20072;-66
2023/05/08 01:46:31;;;;;;;6.95;2.08;;;;;;;22.44;54.06;100063.41;4854811;29;20117;-65
2023/05/08 01:49:06;;;;;;;5.65;2.20;;;;;;;22.44;53.94;100060.75;4856826;29;20045;-68
2023/05/08 01:51:39;;;;;;;4.15;1.58;;;;;;;22.42;54.18;100065.28;4932474;29;20040;-67
2023/05/08 01:54:08;;;;;;;5.40;2.20;;;;;;;22.42;53.92;100067.94;4931460;29;20100;-66
2023/05/08 01:56:37;;;;;;;5.22;2.05;;;;;;;22.40;54.06;100069.84;4959144;28;20046;-66
2023/05/08 01:59:05;;;;;;;4.40;1.90;;;;;;;22.39;53.98;100070.78;4970654;28;20030;-67
2023/05/08 02:01:32;;;;;;;5.13;2.30;;;;;;;22.40;53.86;100064.50;4970756;28;20041;-66
2023/05/08 02:04:00;;;;;;;6.13;1.92;;;;;;;22.40;53.96;100077.81;4970753;28;20043;-65
2023/05/08 02:06:27;;;;;;;6.28;2.17;;;;;;;22.39;53.96;100070.78;4970701;28;20023;-66
2023/05/08 02:08:54;;;;;;;5.13;2.00;;;;;;;22.37;53.86;100067.38;4969272;28;20105;-67
2023/05/08 02:11:23;;;;;;;5.32;1.95;;;;;;;22.38;53.85;100066.41;4931680;29;20020;-66
2023/05/08 02:13:50;;;;;;;5.05;2.08;;;;;;;22.38;53.68;100077.06;4931761;28;20432;-66
2023/05/08 02:16:17;;;;;;;4.97;2.10;;;;;;;22.37;53.79;100081.50;4931636;29;20024;-67
2023/05/08 02:18:49;;;;;;;5.10;2.03;;;;;;;22.36;54.00;100070.94;4931422;29;20493;-67
2023/05/08 02:21:16;;;;;;;5.60;2.00;;;;;;;22.35;53.87;100071.91;4931498;29;20485;-67
2023/05/08 02:23:42;;;;;;;4.78;2.10;;;;;;;;;;4931219;29;20040;-67
2023/05/08 02:26:09;;;;;;;5.28;2.15;;;;;;;22.34;54.11;100065.75;4931546;29;20028;-67
2023/05/08 02:28:35;;;;;;;5.38;1.92;;;;;;;22.34;53.94;100064.88;4931627;29;20031;-66
2023/05/08 02:31:01;;;;;;;5.10;2.42;;;;;;;22.33;53.92;100057.84;4931539;29;20248;-66
2023/05/08 02:33:29;;;;;;;5.20;2.10;;;;;;;22.32;53.72;100056.13;4931385;29;20066;-66
2023/05/08 02:35:56;;;;;;;6.38;2.05;;;;;;;22.31;53.79;100060.59;4931308;29;20035;-68
2023/05/08 02:38:24;;;;;;;6.75;2.05;;;;;;;22.29;53.82;100062.47;4931192;29;20063;-67
2023/05/08 02:40:54;;;;;;;4.75;1.83;;;;;;;22.31;53.93;100065.03;4931414;29;20024;-66
2023/05/08 02:43:19;;;;;;;5.65;1.92;;;;;;;22.31;53.86;100059.72;4931513;29;20477;-67
2023/05/08 02:45:51;;;;;;;6.47;2.17;;;;;;;22.29;53.87;100061.63;4931190;29;20086;-65
2023/05/08 02:48:34;;;;;;;4.53;2.08;;;;;;;22.27;53.65;100059.03;4931570;29;20024;-66
2023/05/08 02:51:15;;;;;;;6.28;1.80;;;;;;;22.27;53.84;100053.72;4932168;29;20032;-66
2023/05/08 02:53:48;;;;;;;6.38;1.60;;;;;;;22.24;53.93;100065.38;4934290;28;20058;-66
2023/05/08 02:56:28;;;;;;;5.75;2.10;;;;;;;22.24;53.84;100057.41;4934163;28;20028;-67
2023/05/08 02:59:11;;;;;;;4.85;1.67;;;;;;;22.24;53.86;100052.09;4934418;29;20020;-66
2023/05/08 03:01:46;;;;;;;4.78;1.80;;;;;;;22.22;54.02;100056.66;4934458;29;20040;-65
2023/05/08 03:04:21;;;;;;;5.15;2.13;;;;;;;22.23;53.85;100058.34;4934261;29;20039;-67
2023/05/08 03:06:48;;;;;;;5.40;2.00;;;;;;;22.21;53.84;100060.25;4934163;29;20028;-67
2023/05/08 03:09:20;;;;;;;6.25;2.17;;;;;;;22.20;53.83;100057.69;4934135;29;20024;-66
2023/05/08 03:11:49;;;;;;;5.45;2.00;;;;;;;22.19;53.91;100058.63;4934171;28;20047;-66
2023/05/08 03:14:20;;;;;;;5.63;2.00;;;;;;;22.17;54.03;100056.03;4934197;29;20034;-66
2023/05/08 03:16:49;;;;;;;4.30;1.52;;;;;;;22.19;53.88;100058.63;4934149;29;20024;-66
2023/05/08 03:19:33;;;;;;;4.88;2.05;;;;;;;22.18;54.03;100055.09;4934128;29;20420;-66
2023/05/08 03:22:00;;;;;;;5.25;2.30;;;;;;;22.17;53.84;100058.72;4933725;29;20052;-67
2023/05/08 03:24:29;;;;;;;6.07;2.20;;;;;;;22.17;53.84;100053.38;4933962;29;20512;-67
2023/05/08 03:26:55;;;;;;;7.93;2.28;;;;;;;22.16;53.72;100056.13;4934203;29;20028;-66
2023/05/08 03:29:23;;;;;;;5.72;1.77;;;;;;;22.15;53.51;100055.28;4934163;29;20036;-67
2023/05/08 03:31:50;;;;;;;6.10;1.77;;;;;;;22.15;53.85;100055.28;4933902;29;20024;-66
2023/05/08 03:34:18;;;;;;;4.82;2.05;;;;;;;22.14;53.97;100056.25;4933874;29;20020;-66
2023/05/08 03:36:44;;;;;;;4.65;2.00;;;;;;;22.14;53.91;100058.91;4933541;28;20024;-66
2023/05/08 03:39:10;;;;;;;5.25;1.83;;;;;;;22.12;53.88;100066.06;4933991;28;20043;-66
2023/05/08 03:41:35;;;;;;;5.72;2.10;;;;;;;22.11;53.87;100067.91;4933980;28;20397;-66
2023/05/08 03:44:02;;;;;;;5.85;1.92;;;;;;;22.11;53.93;100065.25;4933646;29;20441;-67
2023/05/08 03:46:30;;;;;;;6.40;1.80;;;;;;;22.09;53.83;100061.78;4933698;28;20050;-66
2023/05/08 03:48:56;;;;;;;5.47;2.10;;;;;;;22.09;54.02;100066.25;4933584;28;20504;-67
2023/05/08 03:51:22;;;;;;;3.63;1.60;;;;;;;22.06;53.89;100061.09;4933598;29;20032;-66
2023/05/08 03:53:47;;;;;;;5.82;2.03;;;;;;;22.06;53.85;100064.63;4933407;28;20039;-66
2023/05/08 03:56:13;;;;;;;7.03;2.72;;;;;;;22.05;53.91;100073.56;4933445;29;20024;-66
2023/05/08 03:59:01;;;;;;;6.28;2.28;;;;;;;22.06;53.80;100069.09;4916321;28;20059;-67
2023/05/08 04:01:47;;;;;;;6.05;2.17;;;;;;;22.05;53.83;100073.56;4940697;28;20074;-66
2023/05/08 04:04:48;;;;;;;4.43;1.75;;;;;;;22.04;53.79;100079.81;4932811;29;20035;-66
2023/05/08 04:07:27;;;;;;;5.28;2.03;;;;;;;22.03;53.91;100085.22;4874799;29;20041;-66
2023/05/08 04:10:20;;;;;;;8.32;2.00;;;;;;;22.03;53.85;100077.25;4874701;29;20045;-66
2023/05/08 04:12:50;;;;;;;5.70;2.30;;;;;;;21.99;53.94;100082.72;4874415;29;20094;-66
2023/05/08 04:15:23;;;;;;;5.20;1.70;;;;;;;21.99;54.04;100074.75;4874552;29;20033;-65
2023/05/08 04:17:52;;;;;;;6.40;2.03;;;;;;;21.99;53.91;100081.88;4874576;28;20161;-66
2023/05/08 04:20:20;;;;;;;5.03;1.95;;;;;;;21.98;53.84;100086.31;4874359;28;20116;-66
2023/05/08 04:22:50;;;;;;;4.65;1.80;;;;;;;21.96;53.98;100082.91;4874492;28;20049;-66
2023/05/08 04:25:17;;;;;;;4.82;1.90;;;;;;;21.96;53.91;100090.88;4874419;29;20108;-66
2023/05/08 04:27:43;;;;;;;6.13;2.10;;;;;;;21.97;53.97;100081.94;4874569;29;20124;-67
2023/05/08 04:30:09;;;;;;;5.45;1.90;;;;;;;21.96;53.86;100082.03;4874430;29;20033;-67
2023/05/08 04:32:37;;;;;;;5.90;1.77;;;;;;;21.95;53.86;100081.19;4873966;29;20029;-65
2023/05/08 04:35:03;;;;;;;5.50;1.80;;;;;;;21.96;53.72;100082.91;4874259;29;20033;-67
2023/05/08 04:37:32;;;;;;;5.88;2.08;;;;;;;21.94;53.86;100084.75;4874231;29;20103;-66
2023/05/08 04:39:58;;;;;;;6.63;2.00;;;;;;;21.94;53.90;100084.75;4858576;29;20136;-66
2023/05/08 04:42:27;;;;;;;5.57;1.88;;;;;;;21.94;53.78;100084.75;4894935;28;20035;-66
2023/05/08 04:44:53;;;;;;;5.57;2.08;;;;;;;21.94;53.86;100084.75;4932772;29;20032;-66
2023/05/08 04:47:19;;;;;;;5.50;1.95;;;;;;;21.91;53.93;100086.72;4932568;28;20035;-66
2023/05/08 04:49:45;;;;;;;5.68;2.10;;;;;;;21.91;53.92;100082.28;4932765;28;20107;-65
2023/05/08 04:52:10;;;;;;;5.65;1.67;;;;;;;21.89;53.97;100092.13;4933034;29;20095;-66
2023/05/08 04:54:36;;;;;;;6.03;2.03;;;;;;;21.89;53.89;100081.50;4932848;28;20122;-66
2023/05/08 04:57:01;;;;;;;5.47;1.77;;;;;;;21.89;53.85;100081.50;4932828;28;20496;-66
2023/05/08 04:59:28;;;;;;;4.93;1.80;;;;;;;21.89;53.87;100081.50;4932820;29;20028;-65
2023/05/08 05:01:53;;;;;;;6.95;2.08;;;;;;;21.88;53.94;100082.44;4932373;29;20034;-67
2023/05/08 05:04:20;;;;;;;4.40;1.63;;;;;;;21.86;54.00;100077.25;4932441;29;20027;-65
2023/05/08 05:06:45;;;;;;;5.57;1.63;;;;;;;21.87;53.96;100078.09;4932398;29;20077;-66
2023/05/08 05:09:10;;;;;;;3.63;1.60;;;;;;;21.86;53.91;100087.00;4932555;29;20035;-66
2023/05/08 05:11:36;;;;;;;5.22;2.40;;;;;;;21.84;53.99;100089.72;4932643;29;20429;-66
2023/05/08 05:14:01;;;;;;;4.82;1.83;;;;;;;21.84;53.98;100088.88;4931894;29;20055;-67
2023/05/08 05:16:27;;;;;;;5.97;2.05;;;;;;;21.83;53.91;100088.03;4931913;29;20023;-65
2023/05/08 05:18:52;;;;;;;7.05;2.00;;;;;;;21.83;53.76;100092.47;4932030;28;20062;-66
2023/05/08 05:21:18;;;;;;;5.35;2.05;;;;;;;21.84;53.92;100094.19;4918393;29;20445;-68
2023/05/08 05:23:44;;;;;;;5.85;1.85;;;;;;;21.80;53.88;100087.34;4914014;29;20086;-66
2023/05/08 05:26:09;;;;;;;5.22;2.10;;;;;;;21.83;53.81;100097.78;4925320;28;20031;-66
2023/05/08 05:28:35;;;;;;;4.15;1.60;;;;;;;21.83;53.82;100096.00;4932273;29;20032;-66
2023/05/08 05:31:00;;;;;;;4.93;2.10;;;;;;;21.82;53.88;100096.06;4931966;28;20027;-66
2023/05/08 05:33:26;;;;;;;4.90;1.92;;;;;;;21.82;53.84;100096.94;4932202;28;20398;-66
2023/05/08 05:35:51;;;;;;;5.85;1.88;;;;;;;21.80;53.89;100090.84;4923695;29;20099;-66
2023/05/08 05:38:17;;;;;;;4.07;1.70;;;;;;;21.80;53.81;100097.97;4913204;29;20032;-67
2023/05/08 05:40:42;;;;;;;6.40;2.10;;;;;;;21.79;53.89;100096.25;4913021;29;20043;-65
2023/05/08 05:43:07;;;;;;;6.53;2.05;;;;;;;21.77;53.84;100093.66;4913169;29;20060;-67
2023/05/08 05:45:33;;;;;;;5.97;2.03;;;;;;;21.78;53.84;100094.53;4918380;29;20055;-66
2023/05/08 05:47:58;;;;;;;5.80;1.90;;;;;;;21.78;53.99;100097.19;4931861;28;20024;-65
2023/05/08 05:50:25;;;;;;;5.72;2.15;;;;;;;21.75;54.01;100100.88;4931887;29;20059;-66
2023/05/08 05:52:50;;;;;;;5.22;1.88;;;;;;;21.77;53.85;100103.44;4930721;28;20028;-67
2023/05/08 05:55:16;;;;;;;5.90;2.20;;;;;;;21.77;53.91;100104.28;4931539;28;20485;-66
2023/05/08 05:57:44;;;;;;;4.68;1.83;;;;;;;21.77;53.97;100114.06;4931831;29;20031;-66
2023/05/08 06:00:11;;;;;;;4.30;1.58;;;;;;;21.77;53.91;100116.72;4931556;29;20429;-66
2023/05/08 06:02:36;;;;;;;4.80;2.08;;;;;;;21.75;53.83;100111.50;4931860;29;20028;-66
2023/05/08 06:05:03;;;;;;;5.72;2.20;;;;;;;21.77;53.84;100114.06;4914387;29;20051;-67
2023/05/08 06:07:28;;;;;;;6.25;2.13;;;;;;;21.75;53.87;100111.50;4931841;28;20028;-66
2023/05/08 06:09:55;;;;;;;6.10;2.35;;;;;;;21.75;53.86;100105.31;4931598;28;20024;-66
2023/05/08 06:12:20;;;;;;;4.60;2.05;;;;;;;21.76;53.88;100109.69;4931836;28;20028;-66
2023/05/08 06:14:46;;;;;;;4.38;1.52;;;;;;;21.78;53.78;100110.47;4931246;28;20028;-66
2023/05/08 06:17:11;;;;;;;5.25;1.70;;;;;;;21.77;53.87;100109.59;4913494;29;20457;-66
2023/05/08 06:19:37;;;;;;;5.95;1.95;;;;;;;21.78;53.62;100105.16;4912748;29;20059;-67
2023/05/08 06:22:02;;;;;;;4.95;1.67;;;;;;;21.75;53.79;100113.28;4912680;29;20032;-66
2023/05/08 06:24:28;;;;;;;4.60;1.67;;;;;;;21.76;53.79;100112.34;4912561;29;20031;-66
2023/05/08 06:26:53;;;;;;;4.72;1.95;;;;;;;21.78;53.88;100113.97;4930614;29;20046;-66
2023/05/08 06:29:19;;;;;;;5.25;2.00;;;;;;;21.77;53.78;100114.06;4934570;28;20140;-66
2023/05/08 06:31:44;;;;;;;4.13;1.70;;;;;;;21.78;53.79;100110.47;4934887;28;20059;-66
2023/05/08 06:34:10;;;;;;;5.75;1.90;;;;;;;21.80;53.63;100113.91;4934859;29;20020;-67
2023/05/08 06:36:35;;;;;;;4.63;1.63;;;;;;;21.80;53.65;100109.44;4921458;28;20440;-67
2023/05/08 06:39:04;;;;;;;3.80;1.63;;;;;;;21.84;53.54;100116.28;4915808;29;20032;-66
2023/05/08 06:41:30;;;;;;;3.67;1.45;;;;;;;21.86;53.75;100108.25;4915771;29;20620;-66
2023/05/08 06:43:55;;;;;;;5.35;1.80;;;;;;;21.87;53.42;100099.34;4915207;29;20119;-66
2023/05/08 06:46:21;;;;;;;4.35;1.50;;;;;;;21.90;53.62;100099.19;4926826;28;20089;-65
2023/05/08 06:48:46;;;;;;;4.50;1.52;;;;;;;21.92;53.49;100102.59;4917524;29;20046;-65
2023/05/08 06:51:11;;;;;;;4.18;1.70;;;;;;;21.94;53.57;100103.38;4934342;29;20031;-65
2023/05/08 06:53:37;;;;;;;4.78;1.80;;;;;;;21.95;53.51;100102.44;4934452;28;20075;-65
2023/05/08 06:56:02;;;;;;;4.47;1.80;;;;;;;21.97;53.33;100105.88;4934274;28;20485;-66
2023/05/08 06:58:30;;;;;;;5.40;1.85;;;;;;;22.00;53.30;100105.69;4916964;29;20519;-65
2023/05/08 07:00:55;;;;;;;3.28;1.42;;;;;;;22.02;53.44;100107.41;4934437;29;20081;-66
2023/05/08 07:03:21;;;;;;;4.97;1.60;;;;;;;22.02;53.45;100110.91;4934353;29;20477;-65
2023/05/08 07:05:46;;;;;;;3.83;1.60;;;;;;;22.04;53.58;100117.03;4934204;28;20047;-66
2023/05/08 07:08:11;;;;;;;4.45;1.77;;;;;;;22.04;53.40;100113.50;4934203;29;20452;-66
2023/05/08 07:10:37;;;;;;;4.07;1.75;;;;;;;22.05;53.52;100112.53;4934333;29;20078;-64
2023/05/08 07:13:02;;;;;;;4.47;1.65;;;;;;;22.08;53.43;100113.22;4923728;29;20071;-66
2023/05/08 07:15:30;;;;;;;4.00;1.67;;;;;;;22.10;53.36;100115.81;4918817;29;20099;-65
2023/05/08 07:17:56;;;;;;;5.30;1.48;;;;;;;22.12;53.21;100124.56;4933937;29;20027;-65
2023/05/08 07:20:23;;;;;;;3.15;1.40;;;;;;;22.13;53.33;100120.97;4933782;29;20027;-65
2023/05/08 07:22:48;;;;;;;4.82;1.27;;;;;;;22.12;53.35;100124.56;4930972;29;20062;-66
2023/05/08 07:25:14;;;;;;;5.03;1.65;;;;;;;22.12;53.41;100121.88;4932156;29;20055;-65
2023/05/08 07:27:40;;;;;;;4.50;1.50;;;;;;;22.15;53.19;100119.06;4914855;29;20418;-64
2023/05/08 07:30:07;;;;;;;4.68;1.48;;;;;;;22.15;53.44;100129.72;4914999;29;20028;-67
2023/05/08 07:32:32;;;;;;;3.70;1.30;;;;;;;22.18;53.23;100129.53;4913960;29;20056;-66
2023/05/08 07:34:58;;;;;;;3.65;1.27;;;;;;;22.17;53.32;100122.50;4914934;29;20115;-65
2023/05/08 07:37:24;;;;;;;2.92;1.33;;;;;;;22.16;53.27;100126.09;4933199;28;20055;-66
2023/05/08 07:39:49;;;;;;;3.30;1.40;;;;;;;22.15;53.44;100128.84;4933782;28;20036;-66
2023/05/08 07:42:17;;;;;;;4.50;1.45;;;;;;;22.17;53.24;100133.13;4933472;28;20032;-66
2023/05/08 07:44:42;;;;;;;4.18;1.85;;;;;;;22.17;53.49;100122.50;4933567;28;20397;-66
2023/05/08 07:47:08;;;;;;;3.88;1.45;;;;;;;22.19;53.32;100128.59;4917367;29;20032;-66
2023/05/08 07:49:33;;;;;;;4.13;1.33;;;;;;;22.17;53.49;100127.81;4919995;29;20099;-66
2023/05/08 07:51:59;;;;;;;3.05;1.35;;;;;;;22.21;53.28;100129.38;4933468;29;20460;-65
2023/05/08 07:54:24;;;;;;;4.97;1.67;;;;;;;22.22;53.33;100125.75;4933542;28;20558;-66
2023/05/08 07:56:49;;;;;;;3.00;1.35;;;;;;;22.22;53.25;100127.53;4931367;29;20039;-65
2023/05/08 07:59:15;;;;;;;3.05;1.38;;;;;;;22.23;53.21;100122.16;4933235;29;20407;-66
2023/05/08 08:01:45;;;;;;;4.32;1.48;;;;;;;22.25;53.27;100127.38;4933590;29;20032;-66
2023/05/08 08:04:11;;;;;;;3.17;1.15;;;;;;;22.25;53.17;100125.59;4933117;29;20032;-67
2023/05/08 08:06:36;;;;;;;3.78;1.58;;;;;;;22.26;53.31;100131.75;4933261;29;20031;-65
2023/05/08 08:09:02;;;;;;;5.40;1.73;;;;;;;22.27;53.23;100118.38;4933440;29;20027;-66
2023/05/08 08:11:28;;;;;;;3.17;1.30;;;;;;;22.29;53.22;100130.72;4933056;29;20040;-65
2023/05/08 08:13:53;;;;;;;4.68;1.50;;;;;;;22.29;53.23;100131.59;4932937;29;20508;-66
2023/05/08 08:16:18;;;;;;;4.75;1.40;;;;;;;22.30;53.38;100121.81;4933270;29;20022;-66
2023/05/08 08:18:44;;;;;;;4.35;1.67;;;;;;;22.31;53.14;100112.88;4933086;29;20401;-66
2023/05/08 08:21:09;;;;;;;3.97;1.30;;;;;;;22.31;53.01;100116.41;4933208;29;20063;-66
2023/05/08 08:23:35;;;;;;;4.10;1.67;;;;;;;22.33;53.09;100121.66;4933030;29;20032;-67
2023/05/08 08:26:00;;;;;;;4.13;1.70;;;;;;;22.32;53.19;100120.78;4932594;28;20059;-66
2023/05/08 08:28:25;;;;;;;4.47;1.73;;;;;;;22.35;53.12;100122.41;4933176;29;20020;-67
2023/05/08 08:30:51;;;;;;;2.90;1.15;;;;;;;22.36;53.26;100111.69;4933032;29;20031;-67
2023/05/08 08:33:16;;;;;;;3.90;1.20;;;;;;;22.37;53.14;100117.88;4933132;29;20163;-66
2023/05/08 08:35:42;;;;;;;5.07;1.50;;;;;;;22.38;52.99;100117.78;4933000;29;20432;-66
2023/05/08 08:38:07;;;;;;;3.58;1.30;;;;;;;22.38;53.06;100116.94;4932840;29;20044;-66
2023/05/08 08:40:38;;;;;;;3.47;1.40;;;;;;;22.38;53.15;100112.47;4932508;29;20027;-65
2023/05/08 08:43:03;;;;;;;4.50;1.58;;;;;;;22.39;53.12;100121.31;4915791;28;20386;-66
2023/05/08 08:45:30;;;;;;;3.08;1.23;;;;;;;22.40;53.01;100117.69;4932831;29;20036;-66
2023/05/08 08:48:00;;;;;;;3.75;1.52;;;;;;;22.41;53.24;100130.03;4932312;29;20032;-66
2023/05/08 08:50:29;;;;;;;3.90;1.63;;;;;;;22.42;53.01;100131.75;4932626;29;20436;-66
2023/05/08 08:53:03;;;;;;;6.40;1.90;;;;;;;22.44;52.93;100131.66;4932681;28;20024;-66
2023/05/08 08:55:31;;;;;;;3.92;1.42;;;;;;;22.44;53.12;100132.53;4932058;29;20040;-64
2023/05/08 08:58:24;;;;;;;4.00;1.55;;;;;;;22.45;53.15;100136.91;4932569;28;20440;-66
2023/05/08 09:00:49;;;;;;;4.13;1.58;;;;;;;22.45;53.18;100136.91;4932184;28;20032;-66
2023/05/08 09:03:15;;;;;;;4.38;1.55;;;;;;;22.47;53.10;100137.66;4932147;28;20078;-66
2023/05/08 09:05:42;;;;;;;5.13;1.42;;;;;;;22.47;52.93;100140.31;4932441;29;20032;-65
2023/05/08 09:08:09;;;;;;;3.45;1.45;;;;;;;22.49;53.02;100133.13;4930807;29;20024;-66
2023/05/08 09:10:35;;;;;;;4.35;1.35;;;;;;;22.49;53.11;100135.78;4932364;29;20086;-66
2023/05/08 09:13:02;;;;;;;3.28;1.23;;;;;;;22.49;53.15;100137.59;4932627;28;20090;-65
2023/05/08 09:15:27;;;;;;;5.55;1.80;;;;;;;22.51;53.09;100146.31;4930547;29;20555;-66
2023/05/08 09:17:52;;;;;;;4.05;1.50;;;;;;;22.52;52.99;100154.25;4913369;29;20024;-66
2023/05/08 09:20:18;;;;;;;3.85;1.60;;;;;;;22.53;52.98;100155.97;4915508;29;20085;-66
2023/05/08 09:22:44;;;;;;;5.47;1.80;;;;;;;22.55;53.01;100163.88;4928579;29;20028;-66
2023/05/08 09:25:10;;;;;;;4.68;1.40;;;;;;;22.56;52.94;100164.72;4931703;29;20036;-65
2023/05/08 09:27:35;;;;;;;3.13;1.27;;;;;;;22.56;52.84;100160.25;4913702;29;20383;-66
2023/05/08 09:30:09;;;;;;;4.63;1.50;;;;;;;22.58;52.89;100160.16;4926431;29;20039;-66
2023/05/08 09:32:37;;;;;;;6.18;2.03;;;;;;;22.60;52.79;100163.59;4932190;29;20032;-66
2023/05/08 09:35:04;;;;;;;2.67;1.17;;;;;;;22.59;52.97;100160.09;4932030;29;20028;-66
2023/05/08 09:37:29;;;;;;;3.63;1.52;;;;;;;22.60;52.89;100172.44;4931664;29;20050;-66
2023/05/08 09:40:14;;;;;;;3.17;1.30;;;;;;;22.61;52.78;100168.00;4932045;29;20482;-66
2023/05/08 09:42:40;;;;;;;3.85;1.20;;;;;;;22.59;52.91;100167.19;4932038;29;20023;-66
2023/05/08 09:45:06;;;;;;;3.58;1.60;;;;;;;22.61;52.84;100160.84;4931814;29;20103;-65
2023/05/08 09:47:33;;;;;;;3.65;1.27;;;;;;;22.61;52.77;100157.34;4931806;29;20106;-67
2023/05/08 09:50:01;;;;;;;3.17;1.40;;;;;;;22.62;52.83;100159.91;4915038;29;20023;-66
2023/05/08 09:52:28;;;;;;;3.22;1.45;;;;;;;22.63;52.73;100150.13;4931475;29;20572;-65
2023/05/08 09:55:05;;;;;;;3.92;1.40;;;;;;;22.63;52.77;100153.66;4931498;28;20063;-66
2023/05/08 09:57:35;;;;;;;5.03;1.45;;;;;;;22.66;52.88;100149.94;4913947;29;20086;-67
2023/05/08 10:00:05;;;;;;;3.80;1.20;;;;;;;22.67;52.86;100149.03;4932696;29;20067;-66
2023/05/08 10:02:31;;;;;;;2.15;0.93;;;;;;;22.69;52.82;100147.13;4935078;29;20032;-66
2023/05/08 10:04:57;;;;;;;3.30;1.20;;;;;;;22.71;52.97;100150.53;4934991;29;20070;-66
2023/05/08 10:07:31;;;;;;;1.95;1.10;;;;;;;22.72;52.86;100154.94;4934881;29;20024;-67
2023/05/08 10:09:58;;;;;;;2.55;1.20;;;;;;;22.74;52.92;100146.84;4935137;29;20039;-66
2023/05/08 10:12:25;;;;;;;3.53;1.30;;;;;;;22.73;52.74;100143.34;4934376;29;20042;-66
2023/05/08 10:14:51;;;;;;;2.40;1.10;;;;;;;22.76;52.81;100148.47;4934470;29;20036;-65
2023/05/08 10:17:23;;;;;;;4.05;1.40;;;;;;;22.76;52.93;100144.97;4934385;29;20040;-66
2023/05/08 10:19:58;;;;;;;3.10;1.17;;;;;;;22.77;52.78;100142.19;4934450;29;20027;-65
2023/05/08 10:22:24;;;;;;;3.20;1.40;;;;;;;22.78;52.73;100146.59;4932385;29;20036;-66
2023/05/08 10:24:55;;;;;;;3.47;0.90;;;;;;;22.79;52.73;100147.44;4934483;29;20389;-65
2023/05/08 10:27:29;;;;;;;3.80;1.50;;;;;;;22.80;52.62;100142.03;4932116;29;20481;-65
2023/05/08 10:29:58;;;;;;;3.10;1.38;;;;;;;22.82;52.89;100139.28;4934581;28;20024;-66
2023/05/08 10:32:24;;;;;;;3.03;1.15;;;;;;;22.85;52.78;100143.59;4934434;29;20158;-65
2023/05/08 10:34:59;;;;;;;2.42;1.23;;;;;;;22.86;52.71;100139.97;4934303;28;20033;-66
2023/05/08 10:37:29;;;;;;;3.05;1.00;;;;;;;22.85;52.69;100135.59;4932310;29;20349;-66
2023/05/08 10:39:56;;;;;;;3.17;1.10;;;;;;;22.88;52.65;100148.72;4934241;29;20016;-66
2023/05/08 10:42:22;;;;;;;2.60;0.95;;;;;;;22.88;52.77;100132.75;4934338;28;20027;-66
2023/05/08 10:44:48;;;;;;;3.17;1.23;;;;;;;22.89;52.77;100135.31;4934356;29;20409;-66
2023/05/08 10:47:32;;;;;;;4.00;1.77;;;;;;;22.89;52.71;100137.97;4934644;29;20031;-66
2023/05/08 10:50:16;;;;;;;2.90;1.30;;;;;;;22.91;52.77;100132.59;4933522;28;20085;-66
2023/05/08 10:53:14;;;;;;;3.05;1.38;;;;;;;22.92;52.69;100128.97;4932894;29;20162;-66
2023/05/08 10:55:44;;;;;;;4.15;1.42;;;;;;;22.93;52.57;100130.69;4913569;28;20040;-67
2023/05/08 10:58:29;;;;;;;3.90;2.00;;;;;;;22.94;52.95;100121.75;4915155;29;20086;-66
2023/05/08 11:01:03;;;;;;;4.87;2.60;;;;;;;22.95;52.79;100115.47;4913082;29;20012;-66
2023/05/08 11:03:30;;;;;;;4.22;1.95;;;;;;;22.95;52.91;100112.81;4914532;29;20116;-66
2023/05/08 11:05:57;;;;;;;7.63;3.08;;;;;;;22.97;52.88;100102.06;4914347;29;20020;-66
2023/05/08 11:08:26;;;;;;;6.20;2.72;;;;;;;22.97;52.96;100104.72;4914792;29;20446;-66
2023/05/08 11:11:06;;;;;;;4.45;2.40;;;;;;;22.99;52.95;100108.19;4912171;29;20060;-65
2023/05/08 11:13:34;;;;;;;6.20;2.78;;;;;;;22.99;53.04;100098.38;4912032;29;20028;-67
2023/05/08 11:16:00;;;;;;;6.30;3.08;;;;;;;23.00;53.08;100097.41;4914761;29;20024;-66
2023/05/08 11:18:26;;;;;;;7.43;3.15;;;;;;;23.01;52.85;100087.66;4914700;29;20387;-67
2023/05/08 11:20:55;;;;;;;6.82;3.47;;;;;;;23.02;52.95;100090.22;4912144;29;20024;-66
2023/05/08 11:23:27;;;;;;;5.80;3.20;;;;;;;23.03;52.88;100094.59;4914260;29;20031;-66
2023/05/08 11:26:04;;;;;;;6.80;2.92;;;;;;;23.05;52.86;100087.34;4912431;29;20078;-66
2023/05/08 11:28:37;;;;;;;6.32;3.08;;;;;;;23.06;53.11;100083.75;4914564;29;20390;-65
2023/05/08 11:31:04;;;;;;;7.72;3.28;;;;;;;23.06;52.92;100078.41;4914467;29;20031;-66
2023/05/08 11:33:36;;;;;;;8.27;3.88;;;;;;;23.07;53.16;100076.63;4914204;29;20123;-66